sensor_id;sensor_type;location;lat;lon;timestamp;pressure;altitude;pressure_sealevel;temperature;humidity
30875;BME280;17581;43.222;27.924;2023-05-14T00:00:35;101503.41;;;12.16;60.89
30875;BME280;17581;43.222;27.924;2023-05-14T00:03:00;101495.31;;;12.16;61.27
30875;BME280;17581;43.222;27.924;2023-05-14T00:05:26;101501.03;;;12.11;61.54
30875;BME280;17581;43.222;27.924;2023-05-14T00:07:51;101492.03;;;11.99;61.68
30875;BME280;17581;43.222;27.924;2023-05-14T00:10:17;101486.31;;;12.04;61.77
30875;BME280;17581;43.222;27.924;2023-05-14T00:12:44;101490.34;;;11.98;61.76
30875;BME280;17581;43.222;27.924;2023-05-14T00:15:09;101491.59;;;12.06;60.98
30875;BME280;17581;43.222;27.924;2023-05-14T00:17:36;101476.50;;;12.03;60.35
30875;BME280;17581;43.222;27.924;2023-05-14T00:20:02;101498.47;;;12.10;60.03
30875;BME280;17581;43.222;27.924;2023-05-14T00:22:31;101505.94;;;12.06;59.64
30875;BME280;17581;43.222;27.924;2023-05-14T00:24:57;101508.84;;;12.03;59.73
30875;BME280;17581;43.222;27.924;2023-05-14T00:27:22;101502.38;;;12.06;59.49
30875;BME280;17581;43.222;27.924;2023-05-14T00:29:47;101512.94;;;12.09;59.66
30875;BME280;17581;43.222;27.924;2023-05-14T00:32:13;101506.56;;;12.10;59.14
30875;BME280;17581;43.222;27.924;2023-05-14T00:34:38;101497.84;;;12.06;59.55
30875;BME280;17581;43.222;27.924;2023-05-14T00:37:04;101512.94;;;12.09;59.15
30875;BME280;17581;43.222;27.924;2023-05-14T00:39:29;101516.41;;;12.11;59.73
30875;BME280;17581;43.222;27.924;2023-05-14T00:41:55;101519.09;;;12.11;59.91
30875;BME280;17581;43.222;27.924;2023-05-14T00:44:20;101504.66;;;11.99;59.97
30875;BME280;17581;43.222;27.924;2023-05-14T00:46:46;101516.19;;;12.01;60.22
30875;BME280;17581;43.222;27.924;2023-05-14T00:49:11;101513.59;;;11.99;60.12
30875;BME280;17581;43.222;27.924;2023-05-14T00:51:38;101497.44;;;11.99;59.83
30875;BME280;17581;43.222;27.924;2023-05-14T00:54:04;101508.97;;;12.02;58.88
30875;BME280;17581;43.222;27.924;2023-05-14T00:56:30;101514.03;;;12.06;58.90
30875;BME280;17581;43.222;27.924;2023-05-14T00:58:55;101517.44;;;12.08;58.58
30875;BME280;17581;43.222;27.924;2023-05-14T01:01:21;101508.63;;;12.06;59.76
30875;BME280;17581;43.222;27.924;2023-05-14T01:03:47;101516.41;;;12.11;60.35
30875;BME280;17581;43.222;27.924;2023-05-14T01:14:39;101501.88;;;12.24;61.29
30875;BME280;17581;43.222;27.924;2023-05-14T01:17:10;101512.09;;;12.32;60.32
30875;BME280;17581;43.222;27.924;2023-05-14T01:19:41;101502.28;;;12.31;60.31
30875;BME280;17581;43.222;27.924;2023-05-14T01:22:07;101493.44;;;12.29;59.87
30875;BME280;17581;43.222;27.924;2023-05-14T01:24:33;101475.19;;;12.09;59.40
30875;BME280;17581;43.222;27.924;2023-05-14T01:27:21;101491.91;;;12.14;58.94
30875;BME280;17581;43.222;27.924;2023-05-14T01:32:32;101493.63;;;12.02;58.50
30875;BME280;17581;43.222;27.924;2023-05-14T01:34:59;101496.56;;;11.99;58.59
30875;BME280;17581;43.222;27.924;2023-05-14T01:37:26;101494.00;;;11.97;58.85
30875;BME280;17581;43.222;27.924;2023-05-14T01:39:54;101501.78;;;11.89;59.08
30875;BME280;17581;43.222;27.924;2023-05-14T01:42:20;101480.56;;;11.72;59.35
30875;BME280;17581;43.222;27.924;2023-05-14T01:44:46;101500.50;;;11.82;59.19
30875;BME280;17581;43.222;27.924;2023-05-14T01:47:11;101496.94;;;11.82;59.22
30875;BME280;17581;43.222;27.924;2023-05-14T01:49:37;101497.16;;;11.79;59.40
30875;BME280;17581;43.222;27.924;2023-05-14T01:52:02;101498.56;;;11.72;59.87
30875;BME280;17581;43.222;27.924;2023-05-14T01:54:28;101477.44;;;11.53;59.84
30875;BME280;17581;43.222;27.924;2023-05-14T01:56:53;101498.34;;;11.62;60.02
30875;BME280;17581;43.222;27.924;2023-05-14T01:59:19;101483.28;;;11.47;60.21
30875;BME280;17581;43.222;27.924;2023-05-14T02:01:44;101502.69;;;11.52;61.08
30875;BME280;17581;43.222;27.924;2023-05-14T02:04:10;101484.25;;;11.46;60.33
30875;BME280;17581;43.222;27.924;2023-05-14T02:06:35;101499.56;;;11.58;60.61
30875;BME280;17581;43.222;27.924;2023-05-14T02:09:01;101505.25;;;11.54;60.54
30875;BME280;17581;43.222;27.924;2023-05-14T02:11:26;101518.19;;;11.48;60.43
30875;BME280;17581;43.222;27.924;2023-05-14T02:13:52;101502.56;;;11.41;60.18
30875;BME280;17581;43.222;27.924;2023-05-14T02:16:17;101497.09;;;11.42;60.39
30875;BME280;17581;43.222;27.924;2023-05-14T02:18:43;101515.59;;;11.47;60.01
30875;BME280;17581;43.222;27.924;2023-05-14T02:21:08;101515.59;;;11.47;59.29
30875;BME280;17581;43.222;27.924;2023-05-14T02:23:34;101512.91;;;11.47;59.49
30875;BME280;17581;43.222;27.924;2023-05-14T02:25:59;101502.47;;;11.42;59.40
30875;BME280;17581;43.222;27.924;2023-05-14T02:28:25;101502.03;;;11.48;59.00
30875;BME280;17581;43.222;27.924;2023-05-14T02:30:50;101505.25;;;11.41;58.96
30875;BME280;17581;43.222;27.924;2023-05-14T02:33:16;101509.81;;;11.40;58.90
30875;BME280;17581;43.222;27.924;2023-05-14T02:35:41;101502.56;;;11.41;58.78
30875;BME280;17581;43.222;27.924;2023-05-14T02:38:07;101506.56;;;11.48;59.09
30875;BME280;17581;43.222;27.924;2023-05-14T02:40:32;101512.81;;;11.48;59.08
30875;BME280;17581;43.222;27.924;2023-05-14T02:42:57;101518.28;;;11.47;58.67
30875;BME280;17581;43.222;27.924;2023-05-14T02:45:23;101522.41;;;11.40;59.38
30875;BME280;17581;43.222;27.924;2023-05-14T02:47:48;101516.47;;;11.35;58.76
30875;BME280;17581;43.222;27.924;2023-05-14T02:50:14;101522.84;;;11.34;58.62
30875;BME280;17581;43.222;27.924;2023-05-14T02:52:39;101519.94;;;11.37;58.78
30875;BME280;17581;43.222;27.924;2023-05-14T02:55:05;101521.84;;;11.35;58.25
30875;BME280;17581;43.222;27.924;2023-05-14T02:57:30;101516.69;;;11.32;58.81
30875;BME280;17581;43.222;27.924;2023-05-14T02:59:56;101519.28;;;11.33;59.11
30875;BME280;17581;43.222;27.924;2023-05-14T03:02:21;101521.53;;;11.27;59.31
30875;BME280;17581;43.222;27.924;2023-05-14T03:04:47;101516.03;;;11.28;59.43
30875;BME280;17581;43.222;27.924;2023-05-14T03:07:12;101520.81;;;11.25;59.90
30875;BME280;17581;43.222;27.924;2023-05-14T03:09:38;101521.75;;;11.24;59.77
30875;BME280;17581;43.222;27.924;2023-05-14T03:12:03;101517.97;;;11.26;59.38
30875;BME280;17581;43.222;27.924;2023-05-14T03:14:29;101527.38;;;11.33;60.06
30875;BME280;17581;43.222;27.924;2023-05-14T03:16:54;101532.63;;;11.35;59.99
30875;BME280;17581;43.222;27.924;2023-05-14T03:19:20;101543.84;;;11.41;59.18
30875;BME280;17581;43.222;27.924;2023-05-14T03:21:45;101531.66;;;11.48;59.32
30875;BME280;17581;43.222;27.924;2023-05-14T03:24:11;101537.78;;;11.63;59.02
30875;BME280;17581;43.222;27.924;2023-05-14T03:26:36;101542.56;;;11.72;58.44
30875;BME280;17581;43.222;27.924;2023-05-14T03:29:02;101536.22;;;11.73;59.37
30875;BME280;17581;43.222;27.924;2023-05-14T03:31:28;101534.69;;;11.82;60.04
30875;BME280;17581;43.222;27.924;2023-05-14T03:33:53;101535.84;;;11.90;61.79
30875;BME280;17581;43.222;27.924;2023-05-14T03:36:19;101545.50;;;12.06;63.15
30875;BME280;17581;43.222;27.924;2023-05-14T03:38:44;101548.63;;;12.12;63.87
30875;BME280;17581;43.222;27.924;2023-05-14T03:41:10;101558.53;;;12.12;64.55
30875;BME280;17581;43.222;27.924;2023-05-14T03:43:35;101546.56;;;12.16;65.10
30875;BME280;17581;43.222;27.924;2023-05-14T03:46:01;101565.28;;;12.30;64.47
30875;BME280;17581;43.222;27.924;2023-05-14T03:48:26;101547.41;;;12.29;63.56
30875;BME280;17581;43.222;27.924;2023-05-14T03:50:51;101544.75;;;12.40;63.16
30875;BME280;17581;43.222;27.924;2023-05-14T03:53:17;101532.94;;;12.53;63.02
30875;BME280;17581;43.222;27.924;2023-05-14T03:55:42;101525.84;;;12.64;62.27
30875;BME280;17581;43.222;27.924;2023-05-14T03:58:08;101541.19;;;12.87;61.29
30875;BME280;17581;43.222;27.924;2023-05-14T04:00:42;101531.75;;;12.92;59.96
30875;BME280;17581;43.222;27.924;2023-05-14T04:03:07;101538.50;;;12.98;59.64
30875;BME280;17581;43.222;27.924;2023-05-14T04:05:34;101547.06;;;13.16;59.50
30875;BME280;17581;43.222;27.924;2023-05-14T04:08:00;101535.78;;;13.22;59.16
30875;BME280;17581;43.222;27.924;2023-05-14T04:10:26;101553.88;;;13.32;58.63
30875;BME280;17581;43.222;27.924;2023-05-14T04:12:51;101548.59;;;13.42;58.09
30875;BME280;17581;43.222;27.924;2023-05-14T04:15:16;101550.72;;;13.60;58.37
30875;BME280;17581;43.222;27.924;2023-05-14T04:17:42;101548.38;;;13.78;58.45
30875;BME280;17581;43.222;27.924;2023-05-14T04:20:08;101556.22;;;13.92;58.27
30875;BME280;17581;43.222;27.924;2023-05-14T04:22:33;101546.63;;;14.10;57.95
30875;BME280;17581;43.222;27.924;2023-05-14T04:24:59;101540.00;;;14.14;57.72
30875;BME280;17581;43.222;27.924;2023-05-14T04:27:24;101530.41;;;14.22;57.90
30875;BME280;17581;43.222;27.924;2023-05-14T04:29:50;101544.63;;;14.46;57.21
30875;BME280;17581;43.222;27.924;2023-05-14T04:32:16;101536.25;;;14.49;56.46
30875;BME280;17581;43.222;27.924;2023-05-14T04:34:42;101539.19;;;14.57;56.00
30875;BME280;17581;43.222;27.924;2023-05-14T04:37:08;101525.13;;;14.63;56.44
30875;BME280;17581;43.222;27.924;2023-05-14T04:39:34;101528.03;;;14.71;57.37
30875;BME280;17581;43.222;27.924;2023-05-14T04:41:59;101534.75;;;14.88;57.47
30875;BME280;17581;43.222;27.924;2023-05-14T04:44:25;101541.72;;;15.01;57.66
30875;BME280;17581;43.222;27.924;2023-05-14T04:46:50;101543.81;;;15.18;57.81
30875;BME280;17581;43.222;27.924;2023-05-14T04:49:16;101544.78;;;15.38;57.44
30875;BME280;17581;43.222;27.924;2023-05-14T04:51:41;101542.06;;;15.49;57.88
30875;BME280;17581;43.222;27.924;2023-05-14T04:54:07;101556.09;;;15.64;58.43
30875;BME280;17581;43.222;27.924;2023-05-14T04:56:32;101547.88;;;15.75;58.68
30875;BME280;17581;43.222;27.924;2023-05-14T04:58:58;101543.31;;;15.75;59.22
30875;BME280;17581;43.222;27.924;2023-05-14T05:01:23;101539.44;;;15.99;59.31
30875;BME280;17581;43.222;27.924;2023-05-14T05:03:49;101536.47;;;16.11;58.93
30875;BME280;17581;43.222;27.924;2023-05-14T05:06:15;101532.38;;;16.26;58.95
30875;BME280;17581;43.222;27.924;2023-05-14T05:08:40;101531.22;;;16.29;59.16
30875;BME280;17581;43.222;27.924;2023-05-14T05:11:06;101509.78;;;16.16;59.56
30875;BME280;17581;43.222;27.924;2023-05-14T05:13:31;101531.25;;;16.39;59.77
30875;BME280;17581;43.222;27.924;2023-05-14T05:15:57;101536.13;;;16.45;60.36
30875;BME280;17581;43.222;27.924;2023-05-14T05:18:22;101535.41;;;16.52;59.94
30875;BME280;17581;43.222;27.924;2023-05-14T05:20:48;101548.34;;;16.60;60.06
30875;BME280;17581;43.222;27.924;2023-05-14T05:23:13;101545.75;;;16.58;59.82
30875;BME280;17581;43.222;27.924;2023-05-14T05:25:38;101539.53;;;16.47;61.68
30875;BME280;17581;43.222;27.924;2023-05-14T05:28:04;101534.97;;;16.38;62.42
30875;BME280;17581;43.222;27.924;2023-05-14T05:30:29;101539.22;;;16.30;62.36
30875;BME280;17581;43.222;27.924;2023-05-14T05:32:55;101543.22;;;16.26;63.57
30875;BME280;17581;43.222;27.924;2023-05-14T05:35:21;101547.53;;;16.29;64.53
30875;BME280;17581;43.222;27.924;2023-05-14T05:37:47;101526.09;;;16.26;64.80
30875;BME280;17581;43.222;27.924;2023-05-14T05:40:12;101536.84;;;16.47;64.63
30875;BME280;17581;43.222;27.924;2023-05-14T05:42:39;101541.00;;;16.51;63.82
30875;BME280;17581;43.222;27.924;2023-05-14T05:45:05;101537.88;;;16.65;61.84
30875;BME280;17581;43.222;27.924;2023-05-14T05:47:31;101539.91;;;16.72;59.88
30875;BME280;17581;43.222;27.924;2023-05-14T05:49:56;101541.03;;;16.70;58.23
30875;BME280;17581;43.222;27.924;2023-05-14T05:52:22;101534.03;;;16.77;58.51
30875;BME280;17581;43.222;27.924;2023-05-14T05:54:47;101544.16;;;16.94;57.89
30875;BME280;17581;43.222;27.924;2023-05-14T05:57:13;101534.44;;;17.01;56.26
30875;BME280;17581;43.222;27.924;2023-05-14T05:59:38;101541.31;;;17.05;56.77
30875;BME280;17581;43.222;27.924;2023-05-14T06:02:04;101506.84;;;16.96;57.38
30875;BME280;17581;43.222;27.924;2023-05-14T06:04:29;101532.88;;;17.27;56.94
30875;BME280;17581;43.222;27.924;2023-05-14T06:06:54;101504.66;;;17.28;55.53
30875;BME280;17581;43.222;27.924;2023-05-14T06:09:20;101522.66;;;17.49;55.38
30875;BME280;17581;43.222;27.924;2023-05-14T06:11:45;101540.38;;;17.62;54.18
30875;BME280;17581;43.222;27.924;2023-05-14T06:14:11;101541.84;;;17.57;53.79
30875;BME280;17581;43.222;27.924;2023-05-14T06:16:37;101533.81;;;17.46;54.91
30875;BME280;17581;43.222;27.924;2023-05-14T06:19:02;101545.53;;;17.65;55.32
30875;BME280;17581;43.222;27.924;2023-05-14T06:21:27;101540.06;;;17.75;53.72
30875;BME280;17581;43.222;27.924;2023-05-14T06:23:53;101547.22;;;17.76;50.60
30875;BME280;17581;43.222;27.924;2023-05-14T06:26:18;101542.66;;;17.67;50.14
30875;BME280;17581;43.222;27.924;2023-05-14T06:28:44;101542.34;;;17.79;49.88
30875;BME280;17581;43.222;27.924;2023-05-14T06:31:09;101546.63;;;17.82;47.59
30875;BME280;17581;43.222;27.924;2023-05-14T06:33:35;101554.59;;;17.93;47.26
30875;BME280;17581;43.222;27.924;2023-05-14T06:36:04;101538.66;;;17.98;48.59
30875;BME280;17581;43.222;27.924;2023-05-14T06:38:30;101544.06;;;18.08;49.00
30875;BME280;17581;43.222;27.924;2023-05-14T06:40:55;101538.78;;;18.06;49.08
30875;BME280;17581;43.222;27.924;2023-05-14T06:43:21;101542.06;;;18.10;49.28
30875;BME280;17581;43.222;27.924;2023-05-14T06:45:50;101551.56;;;18.23;48.11
30875;BME280;17581;43.222;27.924;2023-05-14T06:48:16;101535.16;;;18.15;47.35
30875;BME280;17581;43.222;27.924;2023-05-14T06:50:48;101540.19;;;18.10;47.00
30875;BME280;17581;43.222;27.924;2023-05-14T06:53:14;101560.56;;;18.06;47.06
30875;BME280;17581;43.222;27.924;2023-05-14T06:55:39;101552.59;;;18.22;46.00
30875;BME280;17581;43.222;27.924;2023-05-14T06:58:06;101550.66;;;18.32;45.42
30875;BME280;17581;43.222;27.924;2023-05-14T07:00:31;101516.09;;;18.15;44.46
30875;BME280;17581;43.222;27.924;2023-05-14T07:02:57;101519.50;;;18.17;44.12
30875;BME280;17581;43.222;27.924;2023-05-14T07:05:23;101525.44;;;18.30;44.20
30875;BME280;17581;43.222;27.924;2023-05-14T07:07:49;101546.13;;;18.51;45.28
30875;BME280;17581;43.222;27.924;2023-05-14T07:10:15;101559.69;;;18.60;45.13
30875;BME280;17581;43.222;27.924;2023-05-14T07:12:40;101563.84;;;18.82;46.65
30875;BME280;17581;43.222;27.924;2023-05-14T07:15:06;101539.19;;;18.56;42.08
30875;BME280;17581;43.222;27.924;2023-05-14T07:17:32;101557.91;;;18.41;42.70
30875;BME280;17581;43.222;27.924;2023-05-14T07:19:57;101565.31;;;18.59;44.58
30875;BME280;17581;43.222;27.924;2023-05-14T07:22:23;101561.91;;;18.74;43.40
30875;BME280;17581;43.222;27.924;2023-05-14T07:24:48;101558.38;;;18.82;42.48
30875;BME280;17581;43.222;27.924;2023-05-14T07:27:14;101566.34;;;19.11;42.43
30875;BME280;17581;43.222;27.924;2023-05-14T07:29:41;101585.34;;;19.20;43.28
30875;BME280;17581;43.222;27.924;2023-05-14T07:32:07;101571.84;;;19.19;42.18
30875;BME280;17581;43.222;27.924;2023-05-14T07:34:32;101587.84;;;19.14;42.31
30875;BME280;17581;43.222;27.924;2023-05-14T07:36:57;101573.66;;;19.10;42.78
30875;BME280;17581;43.222;27.924;2023-05-14T07:39:23;101584.00;;;19.24;42.59
30875;BME280;17581;43.222;27.924;2023-05-14T07:41:49;101584.00;;;19.42;42.29
30875;BME280;17581;43.222;27.924;2023-05-14T07:44:15;101571.66;;;19.55;42.91
30875;BME280;17581;43.222;27.924;2023-05-14T07:46:41;101537.78;;;19.40;42.19
30875;BME280;17581;43.222;27.924;2023-05-14T07:49:07;101576.44;;;19.53;42.44
30875;BME280;17581;43.222;27.924;2023-05-14T07:51:32;101565.91;;;19.67;43.09
30875;BME280;17581;43.222;27.924;2023-05-14T07:53:58;101574.94;;;19.59;43.62
30875;BME280;17581;43.222;27.924;2023-05-14T07:56:23;101582.56;;;19.55;42.70
30875;BME280;17581;43.222;27.924;2023-05-14T07:58:50;101579.16;;;19.53;42.78
30875;BME280;17581;43.222;27.924;2023-05-14T08:01:16;101574.66;;;19.70;42.62
30875;BME280;17581;43.222;27.924;2023-05-14T08:03:41;101586.53;;;19.87;40.57
30875;BME280;17581;43.222;27.924;2023-05-14T08:06:07;101585.72;;;19.94;41.62
30875;BME280;17581;43.222;27.924;2023-05-14T08:08:32;101582.84;;;19.96;39.39
30875;BME280;17581;43.222;27.924;2023-05-14T08:10:59;101600.19;;;19.87;38.94
30875;BME280;17581;43.222;27.924;2023-05-14T08:13:24;101579.78;;;19.99;39.84
30875;BME280;17581;43.222;27.924;2023-05-14T08:15:50;101580.78;;;19.98;39.22
30875;BME280;17581;43.222;27.924;2023-05-14T08:18:16;101598.78;;;19.83;40.32
30875;BME280;17581;43.222;27.924;2023-05-14T08:20:41;101598.00;;;19.65;40.38
30875;BME280;17581;43.222;27.924;2023-05-14T08:23:07;101570.00;;;19.63;40.31
30875;BME280;17581;43.222;27.924;2023-05-14T08:25:33;101580.28;;;19.69;38.69
30875;BME280;17581;43.222;27.924;2023-05-14T08:27:59;101580.69;;;19.82;41.03
30875;BME280;17581;43.222;27.924;2023-05-14T08:30:24;101582.31;;;19.92;41.31
30875;BME280;17581;43.222;27.924;2023-05-14T08:32:50;101575.34;;;20.06;42.45
30875;BME280;17581;43.222;27.924;2023-05-14T08:35:16;101548.88;;;19.98;41.35
30875;BME280;17581;43.222;27.924;2023-05-14T08:37:42;101554.44;;;19.81;40.02
30875;BME280;17581;43.222;27.924;2023-05-14T08:40:08;101569.78;;;19.82;41.80
30875;BME280;17581;43.222;27.924;2023-05-14T08:42:34;101572.97;;;20.03;41.32
30875;BME280;17581;43.222;27.924;2023-05-14T08:45:02;101555.59;;;20.12;41.79
30875;BME280;17581;43.222;27.924;2023-05-14T08:47:30;101547.03;;;20.07;41.49
30875;BME280;17581;43.222;27.924;2023-05-14T08:50:06;101549.22;;;20.29;40.71
30875;BME280;17581;43.222;27.924;2023-05-14T08:52:33;101549.31;;;20.61;40.18
30875;BME280;17581;43.222;27.924;2023-05-14T08:55:01;101538.34;;;20.53;40.24
30875;BME280;17581;43.222;27.924;2023-05-14T08:57:28;101548.63;;;20.68;39.56
30875;BME280;17581;43.222;27.924;2023-05-14T08:59:55;101551.69;;;20.64;37.71
30875;BME280;17581;43.222;27.924;2023-05-14T09:02:27;101566.75;;;20.60;36.77
30875;BME280;17581;43.222;27.924;2023-05-14T09:04:55;101550.09;;;20.38;36.59
30875;BME280;17581;43.222;27.924;2023-05-14T09:07:22;101553.25;;;20.25;37.78
30875;BME280;17581;43.222;27.924;2023-05-14T09:09:48;101561.47;;;20.25;37.20
30875;BME280;17581;43.222;27.924;2023-05-14T09:12:13;101555.31;;;20.23;37.47
30875;BME280;17581;43.222;27.924;2023-05-14T09:14:39;101545.03;;;20.17;38.34
30875;BME280;17581;43.222;27.924;2023-05-14T09:17:04;101556.09;;;20.41;38.89
30875;BME280;17581;43.222;27.924;2023-05-14T09:19:30;101562.31;;;20.68;37.85
30875;BME280;17581;43.222;27.924;2023-05-14T09:21:58;101539.38;;;20.52;38.23
30875;BME280;17581;43.222;27.924;2023-05-14T09:24:26;101560.03;;;20.55;36.42
30875;BME280;17581;43.222;27.924;2023-05-14T09:26:55;101557.16;;;20.64;37.10
30875;BME280;17581;43.222;27.924;2023-05-14T09:29:23;101555.47;;;20.63;37.19
30875;BME280;17581;43.222;27.924;2023-05-14T09:31:49;101549.63;;;20.58;36.85
30875;BME280;17581;43.222;27.924;2023-05-14T09:34:34;101549.50;;;20.60;37.85
30875;BME280;17581;43.222;27.924;2023-05-14T09:37:07;101548.09;;;20.48;38.68
30875;BME280;17581;43.222;27.924;2023-05-14T09:39:34;101534.72;;;20.03;40.39
30875;BME280;17581;43.222;27.924;2023-05-14T09:42:00;101546.09;;;20.24;40.43
30875;BME280;17581;43.222;27.924;2023-05-14T09:44:26;101568.88;;;20.33;40.64
30875;BME280;17581;43.222;27.924;2023-05-14T09:46:52;101577.78;;;20.09;42.27
30875;BME280;17581;43.222;27.924;2023-05-14T09:49:18;101574.44;;;20.23;43.11
30875;BME280;17581;43.222;27.924;2023-05-14T09:51:44;101584.16;;;20.18;45.42
30875;BME280;17581;43.222;27.924;2023-05-14T09:54:09;101585.09;;;20.34;45.09
30875;BME280;17581;43.222;27.924;2023-05-14T09:56:36;101561.69;;;20.32;45.38
30875;BME280;17581;43.222;27.924;2023-05-14T09:59:02;101576.16;;;20.24;43.43
30875;BME280;17581;43.222;27.924;2023-05-14T10:01:29;101570.06;;;20.30;41.28
30875;BME280;17581;43.222;27.924;2023-05-14T10:03:55;101575.69;;;20.03;43.58
30875;BME280;17581;43.222;27.924;2023-05-14T10:06:24;101572.94;;;19.95;43.84
30875;BME280;17581;43.222;27.924;2023-05-14T10:08:53;101558.19;;;19.88;45.39
30875;BME280;17581;43.222;27.924;2023-05-14T10:11:23;101568.66;;;19.92;46.04
30875;BME280;17581;43.222;27.924;2023-05-14T10:14:13;101567.47;;;19.95;47.40
30875;BME280;17581;43.222;27.924;2023-05-14T10:16:46;101570.31;;;19.85;47.08
30875;BME280;17581;43.222;27.924;2023-05-14T10:19:16;101571.34;;;19.84;48.80
30875;BME280;17581;43.222;27.924;2023-05-14T10:21:54;101571.81;;;19.80;47.86
30875;BME280;17581;43.222;27.924;2023-05-14T10:24:20;101558.16;;;19.54;49.27
30875;BME280;17581;43.222;27.924;2023-05-14T10:26:46;101578.13;;;19.54;49.48
30875;BME280;17581;43.222;27.924;2023-05-14T10:29:12;101566.75;;;19.59;50.84
30875;BME280;17581;43.222;27.924;2023-05-14T10:31:45;101554.53;;;19.45;51.80
30875;BME280;17581;43.222;27.924;2023-05-14T10:37:00;101547.84;;;19.66;51.19
30875;BME280;17581;43.222;27.924;2023-05-14T10:42:12;101549.44;;;19.76;47.35
30875;BME280;17581;43.222;27.924;2023-05-14T10:44:42;101558.59;;;19.93;48.42
30875;BME280;17581;43.222;27.924;2023-05-14T10:47:10;101563.66;;;19.88;49.65
30875;BME280;17581;43.222;27.924;2023-05-14T10:49:35;101555.53;;;19.70;48.70
30875;BME280;17581;43.222;27.924;2023-05-14T10:52:01;101566.78;;;19.93;47.52
30875;BME280;17581;43.222;27.924;2023-05-14T10:54:27;101561.06;;;19.78;44.89
30875;BME280;17581;43.222;27.924;2023-05-14T10:56:52;101546.56;;;19.78;43.62
30875;BME280;17581;43.222;27.924;2023-05-14T10:59:18;101558.28;;;19.70;43.86
30875;BME280;17581;43.222;27.924;2023-05-14T11:01:44;101550.31;;;19.77;46.75
30875;BME280;17581;43.222;27.924;2023-05-14T11:04:17;101560.44;;;19.84;48.35
30875;BME280;17581;43.222;27.924;2023-05-14T11:06:44;101549.53;;;19.67;43.41
30875;BME280;17581;43.222;27.924;2023-05-14T11:09:12;101557.75;;;20.00;45.88
30875;BME280;17581;43.222;27.924;2023-05-14T11:11:41;101550.84;;;19.80;43.49
30875;BME280;17581;43.222;27.924;2023-05-14T11:14:07;101560.94;;;19.88;44.44
30875;BME280;17581;43.222;27.924;2023-05-14T11:16:33;101550.47;;;19.75;44.13
30875;BME280;17581;43.222;27.924;2023-05-14T11:19:03;101554.81;;;19.94;43.69
30875;BME280;17581;43.222;27.924;2023-05-14T11:21:29;101543.63;;;20.05;42.77
30875;BME280;17581;43.222;27.924;2023-05-14T11:23:58;101535.69;;;19.94;42.15
30875;BME280;17581;43.222;27.924;2023-05-14T11:26:24;101545.78;;;19.93;39.24
30875;BME280;17581;43.222;27.924;2023-05-14T11:28:50;101528.69;;;19.91;37.44
30875;BME280;17581;43.222;27.924;2023-05-14T11:31:15;101540.91;;;20.05;37.40
30875;BME280;17581;43.222;27.924;2023-05-14T11:33:41;101518.88;;;20.06;38.17
30875;BME280;17581;43.222;27.924;2023-05-14T11:36:06;101523.13;;;20.09;38.31
30875;BME280;17581;43.222;27.924;2023-05-14T11:38:45;101519.03;;;20.05;37.96
30875;BME280;17581;43.222;27.924;2023-05-14T11:41:13;101521.72;;;19.97;38.45
30875;BME280;17581;43.222;27.924;2023-05-14T11:43:39;101503.44;;;19.89;38.27
30875;BME280;17581;43.222;27.924;2023-05-14T11:46:05;101501.94;;;20.03;39.58
30875;BME280;17581;43.222;27.924;2023-05-14T11:48:32;101498.00;;;19.97;41.12
30875;BME280;17581;43.222;27.924;2023-05-14T11:50:58;101498.00;;;19.97;41.38
30875;BME280;17581;43.222;27.924;2023-05-14T11:53:25;101476.16;;;19.97;40.13
30875;BME280;17581;43.222;27.924;2023-05-14T11:55:52;101477.09;;;20.14;40.20
30875;BME280;17581;43.222;27.924;2023-05-14T11:58:24;101476.09;;;20.23;41.72
30875;BME280;17581;43.222;27.924;2023-05-14T12:00:51;101456.44;;;20.12;40.72
30875;BME280;17581;43.222;27.924;2023-05-14T12:03:20;101451.84;;;20.20;41.80
30875;BME280;17581;43.222;27.924;2023-05-14T12:05:59;101443.44;;;20.14;43.60
30875;BME280;17581;43.222;27.924;2023-05-14T12:08:27;101459.22;;;20.28;43.54
30875;BME280;17581;43.222;27.924;2023-05-14T12:10:53;101449.78;;;20.14;45.08
30875;BME280;17581;43.222;27.924;2023-05-14T12:13:18;101444.59;;;19.95;45.47
30875;BME280;17581;43.222;27.924;2023-05-14T12:15:53;101429.91;;;19.96;44.75
30875;BME280;17581;43.222;27.924;2023-05-14T12:18:19;101440.88;;;20.12;43.62
30875;BME280;17581;43.222;27.924;2023-05-14T12:20:48;101445.50;;;20.12;41.03
30875;BME280;17581;43.222;27.924;2023-05-14T12:23:15;101447.72;;;20.16;43.11
30875;BME280;17581;43.222;27.924;2023-05-14T12:25:49;101450.34;;;19.84;43.37
30875;BME280;17581;43.222;27.924;2023-05-14T12:28:16;101448.84;;;19.97;44.04
30875;BME280;17581;43.222;27.924;2023-05-14T12:30:41;101439.72;;;19.73;45.46
30875;BME280;17581;43.222;27.924;2023-05-14T12:33:07;101418.97;;;19.54;46.46
30875;BME280;17581;43.222;27.924;2023-05-14T12:35:32;101436.88;;;19.48;45.88
30875;BME280;17581;43.222;27.924;2023-05-14T12:37:58;101437.53;;;19.42;46.77
30875;BME280;17581;43.222;27.924;2023-05-14T12:40:23;101430.53;;;19.40;46.08
30875;BME280;17581;43.222;27.924;2023-05-14T12:42:49;101431.75;;;19.45;46.10
30875;BME280;17581;43.222;27.924;2023-05-14T12:45:14;101420.03;;;19.53;46.90
30875;BME280;17581;43.222;27.924;2023-05-14T12:47:40;101443.84;;;19.85;47.40
30875;BME280;17581;43.222;27.924;2023-05-14T12:50:06;101414.50;;;19.45;48.82
30875;BME280;17581;43.222;27.924;2023-05-14T12:52:31;101434.47;;;19.45;49.83